Time;durP1;ratioP1;P1;durP2;ratioP2;P2;SDS_P1;SDS_P2;PMS_P1;PMS_P2;Temp;Humidity;BMP_temperature;BMP_pressure;BME280_temperature;BME280_humidity;BME280_pressure;Samples;Min_cycle;Max_cycle;Signal;HPM_P1;HPM_P2
2022/08/01 00:00:01;;;;;;;26.95;17.55;;;;;;;;;;5033395;28;20041;-60
2022/08/01 00:02:27;;;;;;;28.23;18.45;;;;;;;;;;5033504;28;20033;-63
2022/08/01 00:04:56;;;;;;;29.35;19.17;;;;;;;;;;5034080;28;20029;-61
2022/08/01 00:07:22;;;;;;;29.95;19.42;;;;;;;;;;5033770;28;20394;-61
2022/08/01 00:09:48;;;;;;;32.83;19.77;;;;;;;;;;5053722;28;20029;-61
2022/08/01 00:12:13;;;;;;;39.67;21.13;;;;;;;;;;5046017;28;20113;-61
2022/08/01 00:14:38;;;;;;;33.17;21.02;;;;;;;;;;5052496;28;20029;-63
2022/08/01 00:17:04;;;;;;;34.22;20.77;;;;;;;;;;5052869;28;20389;-62
2022/08/01 00:19:30;;;;;;;32.97;21.17;;;;;;;;;;5041445;28;20040;-62
2022/08/01 00:21:55;;;;;;;40.20;22.13;;;;;;;;;;5053345;28;20029;-62
2022/08/01 00:24:20;;;;;;;38.97;21.95;;;;;;;;;;5032157;28;20037;-62
2022/08/01 00:26:46;;;;;;;40.28;22.10;;;;;;;;;;5032692;28;20044;-62
2022/08/01 00:29:11;;;;;;;40.67;22.42;;;;;;;;;;5032006;28;20032;-62
2022/08/01 00:31:37;;;;;;;35.30;20.65;;;;;;;;;;5032349;28;20469;-62
2022/08/01 00:34:02;;;;;;;37.72;21.48;;;;;;;;;;5046995;28;20389;-62
2022/08/01 00:36:28;;;;;;;40.53;21.20;;;;;;;;;;5042204;28;20457;-62
2022/08/01 00:38:53;;;;;;;38.45;21.42;;;;;;;;;;5029553;28;20036;-62
2022/08/01 00:41:19;;;;;;;33.13;19.67;;;;;;;;;;5014670;28;20457;-62
2022/08/01 00:43:44;;;;;;;35.30;19.88;;;;;;;;;;5032925;28;20033;-62
2022/08/01 00:46:10;;;;;;;34.17;19.13;;;;;;;;;;5033065;28;20414;-62
2022/08/01 00:48:35;;;;;;;32.80;19.40;;;;;;;;;;5039426;28;20632;-62
2022/08/01 00:51:03;;;;;;;31.95;18.35;;;;;;;;;;5031444;28;20033;-62
2022/08/01 00:53:29;;;;;;;36.00;19.05;;;;;;;;;;5034998;28;20083;-62
2022/08/01 00:55:56;;;;;;;34.70;19.58;;;;;;;;;;5032657;28;20531;-62
2022/08/01 00:58:22;;;;;;;33.58;19.92;;;;;;;;;;5042540;28;20448;-63
2022/08/01 01:00:47;;;;;;;34.28;20.70;;;;;;;;;;5051719;28;20036;-63
2022/08/01 01:03:13;;;;;;;34.60;20.52;;;;;;;;;;5041526;28;20163;-64
2022/08/01 01:05:48;;;;;;;38.67;21.33;;;;;;;;;;5030609;28;20079;-63
2022/08/01 01:08:24;;;;;;;40.10;21.98;;;;;;;;;;5032636;28;20115;-64
2022/08/01 01:10:57;;;;;;;39.72;21.95;;;;;;;;;;5038063;28;20038;-64
2022/08/01 01:13:35;;;;;;;36.28;20.88;;;;;;;;;;5030656;28;20048;-64
2022/08/01 01:16:06;;;;;;;39.70;21.90;;;;;;;;;;5031284;28;20037;-64
2022/08/01 01:18:39;;;;;;;43.17;22.48;;;;;;;;;;5044736;28;20087;-64
2022/08/01 01:21:19;;;;;;;40.45;22.83;;;;;;;;;;5052097;28;20492;-63
2022/08/01 01:24:25;;;;;;;40.90;22.52;;;;;;;;;;5041457;28;20477;-63
2022/08/01 01:27:01;;;;;;;46.15;23.13;;;;;;;;;;5047773;28;20029;-64
2022/08/01 01:29:38;;;;;;;46.67;24.25;;;;;;;;;;5032998;28;20026;-65
2022/08/01 01:32:05;;;;;;;43.78;23.88;;;;;;;;;;5025132;28;20147;-63
2022/08/01 01:34:33;;;;;;;41.25;22.90;;;;;;;;;;5031398;28;20037;-64
2022/08/01 01:37:01;;;;;;;40.80;22.55;;;;;;;;;;5034116;28;20044;-63
2022/08/01 01:39:29;;;;;;;41.15;22.45;;;;;;;;;;5027306;28;20045;-64
2022/08/01 01:41:55;;;;;;;39.30;21.65;;;;;;;;;;5047447;28;20051;-63
2022/08/01 01:44:21;;;;;;;39.25;20.90;;;;;;;;;;5026914;28;20108;-63
2022/08/01 01:46:48;;;;;;;32.20;18.90;;;;;;;;;;5046850;28;20136;-64
2022/08/01 01:49:15;;;;;;;35.38;19.92;;;;;;;;;;5044546;28;20039;-63
2022/08/01 01:51:42;;;;;;;34.70;19.88;;;;;;;;;;5031079;28;20047;-64
2022/08/01 01:54:09;;;;;;;34.40;19.58;;;;;;;;;;5034445;28;20037;-63
2022/08/01 01:56:48;;;;;;;34.28;19.60;;;;;;;;;;5036970;28;20470;-63
2022/08/01 01:59:19;;;;;;;33.08;19.08;;;;;;;;;;5036679;28;20032;-64
2022/08/01 02:01:51;;;;;;;34.20;19.00;;;;;;;;;;5050610;28;20033;-64
2022/08/01 02:04:17;;;;;;;30.92;18.40;;;;;;;;;;5049274;28;20469;-63
2022/08/01 02:06:46;;;;;;;35.17;19.52;;;;;;;;;;5050934;28;20147;-63
2022/08/01 02:09:16;;;;;;;35.38;18.80;;;;;;;;;;5042147;28;20116;-63
2022/08/01 02:11:43;;;;;;;30.42;18.63;;;;;;;;;;5030948;28;20037;-63
2022/08/01 02:14:11;;;;;;;32.00;18.98;;;;;;;;;;5031222;28;20039;-63
2022/08/01 02:16:39;;;;;;;31.98;18.80;;;;;;;;;;5050916;28;20083;-63
2022/08/01 02:19:05;;;;;;;34.10;19.00;;;;;;;;;;5038211;28;20037;-64
2022/08/01 02:21:38;;;;;;;32.50;17.90;;;;;;;;;;5050555;28;20028;-63
2022/08/01 02:24:13;;;;;;;30.27;17.95;;;;;;;;;;5042582;28;20025;-63
2022/08/01 02:26:43;;;;;;;30.27;17.25;;;;;;;;;;5030036;28;20204;-63
2022/08/01 02:29:13;;;;;;;32.38;17.40;;;;;;;;;;5035384;28;20079;-63
2022/08/01 02:31:41;;;;;;;31.27;17.70;;;;;;;;;;5050724;28;20636;-63
2022/08/01 02:34:09;;;;;;;32.72;17.27;;;;;;;;;;5045420;28;20025;-64
2022/08/01 02:36:36;;;;;;;35.03;18.67;;;;;;;;;;5031048;28;20096;-63
2022/08/01 02:39:07;;;;;;;35.33;17.90;;;;;;;;;;5033002;28;20040;-63
2022/08/01 02:41:38;;;;;;;34.08;18.90;;;;;;;;;;5030623;28;20037;-65
2022/08/01 02:44:06;;;;;;;32.78;17.25;;;;;;;;;;5039023;28;20043;-64
2022/08/01 02:46:39;;;;;;;32.17;18.13;;;;;;;;;;5050349;28;20037;-63
2022/08/01 02:49:07;;;;;;;29.70;17.10;;;;;;;;;;5033890;28;20030;-63
2022/08/01 02:51:35;;;;;;;28.92;16.48;;;;;;;;;;5034384;28;20037;-63
2022/08/01 02:54:02;;;;;;;28.25;17.45;;;;;;;;;;5035818;28;20500;-64
2022/08/01 02:56:34;;;;;;;27.38;16.80;;;;;;;;;;5033413;28;20088;-63
2022/08/01 02:59:02;;;;;;;30.02;16.77;;;;;;;;;;5049035;28;20471;-63
2022/08/01 03:01:28;;;;;;;27.67;15.88;;;;;;;;;;5045727;28;20037;-64
2022/08/01 03:03:54;;;;;;;31.85;16.27;;;;;;;;;;5050046;28;20413;-63
2022/08/01 03:06:20;;;;;;;31.10;17.13;;;;;;;;;;5055183;28;20033;-63
2022/08/01 03:08:47;;;;;;;28.05;16.80;;;;;;;;;;5049524;28;20064;-63
2022/08/01 03:11:13;;;;;;;30.58;17.45;;;;;;;;;;5054499;28;20036;-63
2022/08/01 03:13:42;;;;;;;30.23;17.00;;;;;;;;;;5046068;28;20036;-63
2022/08/01 03:16:09;;;;;;;32.88;17.30;;;;;;;;;;5054368;28;20033;-64
2022/08/01 03:18:36;;;;;;;32.45;17.50;;;;;;;;;;5052178;28;20374;-64
2022/08/01 03:21:02;;;;;;;32.72;17.92;;;;;;;;;;5054133;28;20025;-64
2022/08/01 03:23:29;;;;;;;30.88;17.30;;;;;;;;;;5039178;28;20030;-63
2022/08/01 03:25:57;;;;;;;30.80;17.55;;;;;;;;;;5035093;28;20033;-63
2022/08/01 03:28:23;;;;;;;33.60;17.33;;;;;;;;;;5035721;28;20033;-63
2022/08/01 03:30:50;;;;;;;36.75;18.38;;;;;;;;;;5034981;28;20117;-64
2022/08/01 03:33:15;;;;;;;28.83;17.00;;;;;;;;;;5046583;28;20040;-63
2022/08/01 03:35:47;;;;;;;33.05;16.85;;;;;;;;;;5054640;28;20029;-64
2022/08/01 03:38:15;;;;;;;32.28;16.77;;;;;;;;;;5041084;28;20096;-63
2022/08/01 03:40:48;;;;;;;33.00;17.65;;;;;;;;;;5034320;28;20060;-64
2022/08/01 03:43:18;;;;;;;30.83;16.73;;;;;;;;;;5040550;28;20037;-64
2022/08/01 03:45:47;;;;;;;32.88;17.60;;;;;;;;;;5032344;28;20216;-63
2022/08/01 03:48:17;;;;;;;32.60;16.75;;;;;;;;;;5041344;28;20045;-63
2022/08/01 03:50:52;;;;;;;27.98;16.52;;;;;;;;;;5053176;28;20064;-64
2022/08/01 03:53:24;;;;;;;32.78;16.33;;;;;;;;;;5049085;28;20114;-64
2022/08/01 03:55:51;;;;;;;30.95;16.65;;;;;;;;;;5033251;28;20029;-63
2022/08/01 03:58:16;;;;;;;29.48;17.02;;;;;;;;;;5040838;28;20036;-63
2022/08/01 04:00:43;;;;;;;30.42;16.48;;;;;;;;;;5026368;28;20044;-63
2022/08/01 04:03:10;;;;;;;26.60;16.42;;;;;;;;;;5048182;28;20045;-63
2022/08/01 04:05:36;;;;;;;29.75;16.20;;;;;;;;;;5036208;28;20043;-63
2022/08/01 04:08:02;;;;;;;31.27;16.60;;;;;;;;;;5035623;28;20185;-62
2022/08/01 04:10:28;;;;;;;27.00;15.80;;;;;;;;;;5052097;28;20036;-63
2022/08/01 04:12:54;;;;;;;29.77;15.43;;;;;;;;;;5051015;28;20032;-62
2022/08/01 04:15:20;;;;;;;26.20;15.07;;;;;;;;;;5032621;28;20033;-63
2022/08/01 04:17:46;;;;;;;26.75;15.45;;;;;;;;;;5031686;28;20087;-62
2022/08/01 04:20:12;;;;;;;27.60;14.48;;;;;;;;;;5033448;28;20033;-62
2022/08/01 04:22:38;;;;;;;24.08;13.25;;;;;;;;;;5039863;28;20059;-62
2022/08/01 04:25:12;;;;;;;24.88;14.13;;;;;;;;;;5041554;28;20544;-62
2022/08/01 04:27:40;;;;;;;21.15;13.23;;;;;;;;;;5036060;28;20462;-62
2022/08/01 04:30:07;;;;;;;23.55;12.93;;;;;;;;;;5033260;28;20336;-62
2022/08/01 04:32:35;;;;;;;21.52;12.65;;;;;;;;;;5038182;28;20033;-62
2022/08/01 04:35:05;;;;;;;22.25;12.50;;;;;;;;;;5041194;28;20428;-61
2022/08/01 04:37:32;;;;;;;22.88;12.55;;;;;;;;;;5039451;28;20082;-62
2022/08/01 04:39:59;;;;;;;20.98;12.50;;;;;;;;;;5047003;28;20044;-61
2022/08/01 04:42:25;;;;;;;22.08;13.07;;;;;;;;;;5052077;28;20052;-61
2022/08/01 04:44:50;;;;;;;20.42;12.07;;;;;;;;;;5042568;28;20041;-61
2022/08/01 04:47:17;;;;;;;22.00;12.20;;;;;;;;;;5038871;28;20033;-62
2022/08/01 04:49:43;;;;;;;22.48;12.52;;;;;;;;;;5052195;28;20036;-61
2022/08/01 04:52:09;;;;;;;18.00;11.57;;;;;;;;;;5042819;28;20028;-62
2022/08/01 04:54:38;;;;;;;19.90;11.13;;;;;;;;;;5038467;28;20028;-61
2022/08/01 04:57:05;;;;;;;17.92;10.70;;;;;;;;;;5047285;28;20037;-61
2022/08/01 04:59:41;;;;;;;18.33;10.27;;;;;;;;;;5031218;28;20069;-62
2022/08/01 05:02:12;;;;;;;16.95;9.88;;;;;;;;;;5042846;28;20039;-61
2022/08/01 05:04:39;;;;;;;14.82;9.85;;;;;;;;;;5037208;28;20029;-61
2022/08/01 05:07:05;;;;;;;17.05;10.02;;;;;;;;;;5044640;28;20037;-60
2022/08/01 05:09:32;;;;;;;18.88;10.68;;;;;;;;;;5039770;28;20029;-61
2022/08/01 05:12:01;;;;;;;16.98;10.13;;;;;;;;;;5050068;28;20108;-64
2022/08/01 05:14:28;;;;;;;17.08;10.60;;;;;;;;;;5050965;28;20029;-65
2022/08/01 05:16:54;;;;;;;18.90;10.48;;;;;;;;;;5048659;28;20056;-65
2022/08/01 05:19:21;;;;;;;15.45;9.93;;;;;;;;;;5051504;28;20414;-64
2022/08/01 05:21:46;;;;;;;18.25;10.73;;;;;;;;;;5031710;28;20029;-65
2022/08/01 05:24:12;;;;;;;16.33;10.73;;;;;;;;;;5052497;28;20059;-65
2022/08/01 05:26:39;;;;;;;20.55;12.35;;;;;;;;;;5042720;28;20033;-65
2022/08/01 05:29:04;;;;;;;24.60;13.80;;;;;;;;;;5034203;28;20517;-64
2022/08/01 05:31:30;;;;;;;20.88;12.40;;;;;;;;;;5043548;28;20125;-64
2022/08/01 05:33:55;;;;;;;23.05;12.80;;;;;;;;;;5032255;28;20036;-68
2022/08/01 05:36:20;;;;;;;22.27;12.85;;;;;;;;;;5041561;28;20367;-64
2022/08/01 05:38:46;;;;;;;21.02;12.13;;;;;;;;;;5044243;28;20033;-64
2022/08/01 05:41:11;;;;;;;17.08;11.10;;;;;;;;;;5024695;28;20061;-63
2022/08/01 05:43:37;;;;;;;19.65;10.93;;;;;;;;;;5035383;28;20432;-67
2022/08/01 05:46:02;;;;;;;20.63;10.90;;;;;;;;;;5038246;28;20029;-66
2022/08/01 05:48:28;;;;;;;18.05;10.35;;;;;;;;;;5050878;28;20037;-66
2022/08/01 05:50:54;;;;;;;17.25;10.07;;;;;;;;;;5050037;28;20389;-65
2022/08/01 05:53:20;;;;;;;15.50;9.68;;;;;;;;;;5050070;28;20033;-65
2022/08/01 05:55:45;;;;;;;14.60;10.02;;;;;;;;;;5023721;28;20033;-65
2022/08/01 05:58:11;;;;;;;14.60;9.80;;;;;;;;;;5030656;28;20033;-65
2022/08/01 06:00:36;;;;;;;14.68;9.40;;;;;;;;;;5031145;28;20458;-65
2022/08/01 06:03:01;;;;;;;13.68;8.73;;;;;;;;;;5042727;28;20029;-63
2022/08/01 06:05:27;;;;;;;13.10;8.40;;;;;;;;;;5050497;28;20028;-65
2022/08/01 06:07:53;;;;;;;16.38;9.02;;;;;;;;;;5044730;28;20029;-65
2022/08/01 06:10:19;;;;;;;14.85;8.85;;;;;;;;;;5051292;28;20041;-67
2022/08/01 06:12:44;;;;;;;14.68;7.88;;;;;;;;;;5037848;28;20576;-66
2022/08/01 06:15:10;;;;;;;14.05;7.78;;;;;;;;;;5031311;28;20043;-65
2022/08/01 06:17:36;;;;;;;10.73;7.20;;;;;;;;;;5031750;28;20042;-64
2022/08/01 06:20:01;;;;;;;12.43;7.80;;;;;;;;;;5035112;28;20043;-67
2022/08/01 06:22:27;;;;;;;11.05;8.30;;;;;;;;;;5046535;28;20037;-67
2022/08/01 06:24:52;;;;;;;12.95;9.25;;;;;;;;;;5037028;28;20164;-67
2022/08/01 06:27:19;;;;;;;13.23;8.75;;;;;;;;;;5031270;28;20032;-66
2022/08/01 06:29:44;;;;;;;15.05;9.07;;;;;;;;;;5038777;28;20040;-64
2022/08/01 06:32:09;;;;;;;14.55;9.07;;;;;;;;;;5051149;28;20029;-64
2022/08/01 06:34:35;;;;;;;13.23;8.80;;;;;;;;;;5043421;28;20462;-66
2022/08/01 06:37:01;;;;;;;15.85;8.70;;;;;;;;;;5043594;28;20025;-65
2022/08/01 06:39:26;;;;;;;13.30;8.73;;;;;;;;;;5044476;28;20504;-66
2022/08/01 06:41:52;;;;;;;14.40;8.63;;;;;;;;;;5030860;28;20033;-65
2022/08/01 06:44:17;;;;;;;14.32;9.00;;;;;;;;;;5047981;28;20044;-66
2022/08/01 06:46:42;;;;;;;13.70;8.90;;;;;;;;;;5024649;28;20044;-67
2022/08/01 06:49:08;;;;;;;12.50;8.65;;;;;;;;;;5032734;28;20117;-64
2022/08/01 06:51:33;;;;;;;12.55;8.10;;;;;;;;;;5034004;28;20030;-64
2022/08/01 06:53:59;;;;;;;11.00;8.02;;;;;;;;;;5035779;28;20053;-65
2022/08/01 06:56:24;;;;;;;10.27;6.68;;;;;;;;;;5031041;28;20053;-67
2022/08/01 06:58:50;;;;;;;9.13;6.40;;;;;;;;;;5030187;28;20029;-66
2022/08/01 07:01:16;;;;;;;11.02;6.22;;;;;;;;;;5012857;28;20534;-66
2022/08/01 07:03:41;;;;;;;9.10;5.80;;;;;;;;;;5030866;28;20036;-67
2022/08/01 07:06:06;;;;;;;10.55;4.90;;;;;;;;;;5030514;28;20033;-65
2022/08/01 07:08:32;;;;;;;6.63;4.45;;;;;;;;;;5035196;28;20474;-65
2022/08/01 07:10:59;;;;;;;6.95;4.32;;;;;;;;;;5043549;28;20061;-67
2022/08/01 07:13:26;;;;;;;5.80;3.92;;;;;;;;;;5040729;28;20389;-67
2022/08/01 07:15:52;;;;;;;7.05;4.53;;;;;;;;;;5032742;28;20326;-68
2022/08/01 07:18:18;;;;;;;6.35;4.18;;;;;;;;;;5030773;28;20474;-67
2022/08/01 07:20:45;;;;;;;6.72;4.13;;;;;;;;;;5031101;28;20044;-65
2022/08/01 07:23:14;;;;;;;6.93;3.38;;;;;;;;;;5047034;28;20029;-65
2022/08/01 07:25:39;;;;;;;4.13;2.97;;;;;;;;;;5034394;28;20033;-65
2022/08/01 07:28:05;;;;;;;6.93;4.15;;;;;;;;;;5030767;28;20044;-66
2022/08/01 07:30:30;;;;;;;6.65;4.43;;;;;;;;;;5031134;28;20038;-65
2022/08/01 07:32:56;;;;;;;8.13;4.28;;;;;;;;;;5049931;28;20025;-66
2022/08/01 07:35:21;;;;;;;8.18;4.43;;;;;;;;;;5037899;28;20034;-66
2022/08/01 07:37:47;;;;;;;8.77;4.20;;;;;;;;;;5031815;28;20022;-65
2022/08/01 07:40:13;;;;;;;6.93;4.25;;;;;;;;;;5035006;28;20526;-64
2022/08/01 07:42:38;;;;;;;7.03;4.68;;;;;;;;;;5049661;28;20033;-66
2022/08/01 07:45:04;;;;;;;6.50;3.90;;;;;;;;;;5053096;28;20032;-64
2022/08/01 07:47:29;;;;;;;4.72;3.17;;;;;;;;;;5053820;28;20053;-66
2022/08/01 07:50:03;;;;;;;6.47;3.78;;;;;;;;;;5039683;28;20021;-64
2022/08/01 07:52:30;;;;;;;6.63;4.40;;;;;;;;;;5048636;28;20031;-63
2022/08/01 07:54:56;;;;;;;7.65;5.57;;;;;;;;;;5046388;28;20539;-63
2022/08/01 07:57:21;;;;;;;8.82;5.93;;;;;;;;;;5043534;28;20052;-66
2022/08/01 07:59:46;;;;;;;9.52;6.70;;;;;;;;;;5034545;28;20037;-65
2022/08/01 08:02:12;;;;;;;10.93;7.55;;;;;;;;;;5035719;28;20038;-65
2022/08/01 08:04:37;;;;;;;10.98;7.00;;;;;;;;;;5052197;28;20111;-67
2022/08/01 08:07:03;;;;;;;10.95;7.60;;;;;;;;;;5047952;28;20489;-68
2022/08/01 08:09:28;;;;;;;9.82;7.07;;;;;;;;;;5024004;28;20060;-68
2022/08/01 08:11:53;;;;;;;11.45;6.65;;;;;;;;;;5041842;28;20272;-67
2022/08/01 08:14:19;;;;;;;9.52;6.50;;;;;;;;;;5040748;28;20052;-67
2022/08/01 08:16:45;;;;;;;7.50;4.10;;;;;;;;;;5048560;28;20029;-67
2022/08/01 08:19:11;;;;;;;6.90;4.47;;;;;;;;;;5033492;28;20040;-67
2022/08/01 08:21:37;;;;;;;5.15;3.72;;;;;;;;;;5033258;28;20057;-66
2022/08/01 08:24:21;;;;;;;6.15;3.72;;;;;;;;;;5032544;28;20095;-67
2022/08/01 08:26:53;;;;;;;5.95;2.72;;;;;;;;;;5044830;28;20474;-66
2022/08/01 08:29:19;;;;;;;4.20;2.65;;;;;;;;;;5053399;28;20075;-66
2022/08/01 08:31:45;;;;;;;3.42;2.47;;;;;;;;;;5036115;28;20044;-65
2022/08/01 08:34:11;;;;;;;4.78;2.40;;;;;;;;;;5050296;28;20040;-67
2022/08/01 08:36:37;;;;;;;3.20;2.17;;;;;;;;;;5050961;28;20059;-68
2022/08/01 08:39:02;;;;;;;2.58;1.92;;;;;;;;;;5048128;28;20028;-66
2022/08/01 08:41:32;;;;;;;3.10;2.28;;;;;;;;;;5048444;28;20033;-65
2022/08/01 08:43:58;;;;;;;2.60;2.10;;;;;;;;;;5043741;28;20582;-68
2022/08/01 08:46:27;;;;;;;4.28;2.40;;;;;;;;;;5034979;28;20108;-66
2022/08/01 08:48:53;;;;;;;4.13;2.38;;;;;;;;;;5046069;28;20465;-68
2022/08/01 08:51:19;;;;;;;3.45;2.15;;;;;;;;;;5045389;28;20115;-66
2022/08/01 08:53:46;;;;;;;3.95;2.15;;;;;;;;;;5049975;28;20104;-65
2022/08/01 08:56:13;;;;;;;3.05;1.92;;;;;;;;;;5052501;28;20128;-65
2022/08/01 08:58:41;;;;;;;2.90;2.00;;;;;;;;;;5048589;28;20037;-66
2022/08/01 09:01:08;;;;;;;2.90;1.95;;;;;;;;;;5032559;28;20033;-66
2022/08/01 09:03:34;;;;;;;1.95;1.63;;;;;;;;;;5017573;28;20536;-66
2022/08/01 09:05:59;;;;;;;2.80;1.60;;;;;;;;;;5032848;28;20608;-67
2022/08/01 09:08:25;;;;;;;2.22;1.73;;;;;;;;;;5031800;28;20029;-67
2022/08/01 09:10:50;;;;;;;2.40;1.80;;;;;;;;;;5031894;28;20052;-65
2022/08/01 09:13:16;;;;;;;1.80;1.70;;;;;;;;;;5033015;28;20034;-66
2022/08/01 09:15:53;;;;;;;3.30;1.90;;;;;;;;;;5033271;28;20113;-67
2022/08/01 09:18:40;;;;;;;3.42;1.80;;;;;;;;;;5032982;28;20037;-66
2022/08/01 09:21:05;;;;;;;2.20;1.90;;;;;;;;;;5051079;28;20068;-66
2022/08/01 09:23:39;;;;;;;3.67;2.13;;;;;;;;;;5035504;28;20056;-67
2022/08/01 09:26:06;;;;;;;3.33;2.10;;;;;;;;;;5028606;28;20064;-66
2022/08/01 09:28:32;;;;;;;2.85;1.70;;;;;;;;;;5034644;28;20032;-66
2022/08/01 09:30:57;;;;;;;2.35;1.63;;;;;;;;;;5049136;28;20090;-67
2022/08/01 09:33:23;;;;;;;3.30;1.80;;;;;;;;;;5049869;28;20036;-68
2022/08/01 09:35:56;;;;;;;2.38;1.77;;;;;;;;;;5042475;28;20061;-67
2022/08/01 09:38:28;;;;;;;2.97;1.90;;;;;;;;;;5049859;28;20029;-67
2022/08/01 09:40:59;;;;;;;4.97;2.00;;;;;;;;;;5042401;28;20087;-67
2022/08/01 09:43:27;;;;;;;2.35;1.90;;;;;;;;;;5049498;28;20075;-63
2022/08/01 09:45:54;;;;;;;2.88;1.80;;;;;;;;;;5030676;28;20037;-66
2022/08/01 09:48:21;;;;;;;2.83;1.60;;;;;;;;;;5031524;28;20064;-64
2022/08/01 09:50:48;;;;;;;1.35;1.25;;;;;;;;;;5032853;28;20075;-66
2022/08/01 09:53:15;;;;;;;1.52;1.42;;;;;;;;;;5031406;28;20029;-67
2022/08/01 09:55:41;;;;;;;2.33;1.52;;;;;;;;;;5013092;28;20037;-66
2022/08/01 09:58:07;;;;;;;2.50;1.70;;;;;;;;;;5031608;28;20540;-63
2022/08/01 10:00:34;;;;;;;3.70;1.73;;;;;;;;;;5030184;28;20036;-69
2022/08/01 10:03:00;;;;;;;1.45;1.35;;;;;;;;;;5029913;28;20083;-64
2022/08/01 10:05:35;;;;;;;1.13;1.10;;;;;;;;;;5033794;28;20394;-66
2022/08/01 10:08:04;;;;;;;3.13;1.63;;;;;;;;;;5030843;28;20108;-67
2022/08/01 10:10:30;;;;;;;1.83;1.58;;;;;;;;;;5016258;28;20034;-65
2022/08/01 10:12:59;;;;;;;1.70;1.60;;;;;;;;;;5030218;28;20025;-65
2022/08/01 10:15:26;;;;;;;1.30;1.20;;;;;;;;;;5045078;28;20041;-64
2022/08/01 10:18:03;;;;;;;1.30;1.20;;;;;;;;;;5043001;28;20077;-65
2022/08/01 10:20:31;;;;;;;0.95;0.90;;;;;;;;;;5042596;28;20033;-63
2022/08/01 10:23:02;;;;;;;1.48;1.05;;;;;;;;;;5039802;28;20037;-65
2022/08/01 10:25:34;;;;;;;1.10;1.00;;;;;;;;;;5047585;28;20033;-74
2022/08/01 10:28:05;;;;;;;2.88;2.10;;;;;;;;;;5049367;28;20032;-65
2022/08/01 10:30:31;;;;;;;2.60;2.40;;;;;;;;;;5034406;28;20164;-66
2022/08/01 10:32:56;;;;;;;2.20;2.00;;;;;;;;;;5035213;28;20116;-65
2022/08/01 10:35:22;;;;;;;1.60;1.40;;;;;;;;;;5030753;28;20044;-65
2022/08/01 10:37:50;;;;;;;1.13;1.02;;;;;;;;;;5044949;28;20388;-65
2022/08/01 10:40:15;;;;;;;0.80;0.80;;;;;;;;;;5035802;28;20045;-65
2022/08/01 10:42:42;;;;;;;1.25;1.00;;;;;;;;;;5048790;28;20040;-65
2022/08/01 10:45:11;;;;;;;0.88;0.88;;;;;;;;;;5050010;28;20561;-66
2022/08/01 10:47:54;;;;;;;0.88;0.88;;;;;;;;;;5046338;28;20029;-67
2022/08/01 10:50:31;;;;;;;0.90;0.90;;;;;;;;;;5039878;28;20534;-68
2022/08/01 10:53:15;;;;;;;0.60;0.60;;;;;;;;;;5048096;28;20122;-65
2022/08/01 10:55:52;;;;;;;0.60;0.57;;;;;;;;;;5031332;28;20025;-68
2022/08/01 10:58:37;;;;;;;1.55;0.60;;;;;;;;;;5048728;28;20037;-68
2022/08/01 11:01:14;;;;;;;0.73;0.60;;;;;;;;;;5046721;28;20675;-67
2022/08/01 11:03:44;;;;;;;0.40;0.40;;;;;;;;;;5049498;28;20089;-65
2022/08/01 11:06:41;;;;;;;0.50;0.50;;;;;;;;;;5035637;28;20038;-64
2022/08/01 11:09:12;;;;;;;0.60;0.60;;;;;;;;;;5029686;28;20034;-66
2022/08/01 11:12:04;;;;;;;0.50;0.50;;;;;;;;;;5033819;28;20026;-68
2022/08/01 11:14:30;;;;;;;1.95;0.50;;;;;;;;;;5040396;28;20117;-64
2022/08/01 11:16:56;;;;;;;0.50;0.50;;;;;;;;;;5053785;28;20040;-66
2022/08/01 11:19:22;;;;;;;0.57;0.57;;;;;;;;;;5048025;28;20474;-65
2022/08/01 11:21:54;;;;;;;0.60;0.60;;;;;;;;;;5035634;28;20037;-67
2022/08/01 11:24:47;;;;;;;0.70;0.70;;;;;;;;;;5052709;28;20116;-66
2022/08/01 11:27:23;;;;;;;1.17;0.70;;;;;;;;;;5054279;28;20036;-68
2022/08/01 11:30:10;;;;;;;0.82;0.68;;;;;;;;;;5043446;28;20031;-68
2022/08/01 11:32:47;;;;;;;0.45;0.45;;;;;;;;;;5052999;28;20043;-64
2022/08/01 11:35:12;;;;;;;0.68;0.68;;;;;;;;;;5044702;28;20406;-69
2022/08/01 11:37:38;;;;;;;0.60;0.60;;;;;;;;;;5034119;28;20040;-66
2022/08/01 11:40:24;;;;;;;0.60;0.60;;;;;;;;;;5033554;28;20033;-64
2022/08/01 11:43:08;;;;;;;0.70;0.70;;;;;;;;;;5033289;28;20041;-66
2022/08/01 11:45:51;;;;;;;0.68;0.68;;;;;;;;;;5052052;28;20431;-67
2022/08/01 11:48:27;;;;;;;0.55;0.55;;;;;;;;;;5049021;28;20049;-67
2022/08/01 11:50:55;;;;;;;1.35;0.80;;;;;;;;;;5049702;28;20116;-71
2022/08/01 11:53:21;;;;;;;0.88;0.50;;;;;;;;;;5043536;28;20041;-71
2022/08/01 11:55:48;;;;;;;1.50;0.70;;;;;;;;;;5050568;28;20033;-65
2022/08/01 11:58:16;;;;;;;1.65;0.80;;;;;;;;;;5041971;28;20021;-64
2022/08/01 12:00:42;;;;;;;0.70;0.70;;;;;;;;;;5034033;28;20034;-65
2022/08/01 12:03:08;;;;;;;0.80;0.80;;;;;;;;;;5036114;28;20032;-66
2022/08/01 12:05:36;;;;;;;0.88;0.80;;;;;;;;;;5052845;28;20529;-68
2022/08/01 12:08:04;;;;;;;1.42;0.88;;;;;;;;;;5052684;28;20094;-66
2022/08/01 12:10:36;;;;;;;1.05;0.75;;;;;;;;;;5044245;28;20037;-67
2022/08/01 12:13:04;;;;;;;2.38;0.77;;;;;;;;;;5048485;28;20036;-63
2022/08/01 12:15:34;;;;;;;1.95;1.00;;;;;;;;;;5034376;28;20037;-67
2022/08/01 12:18:01;;;;;;;;;;;;;;;;;;5033170;28;20544;-64
2022/08/01 12:20:29;;;;;;;1.15;1.00;;;;;;;;;;5032978;28;19917;-66
2022/08/01 12:23:12;;;;;;;2.17;0.90;;;;;;;;;;5031530;28;20034;-65
2022/08/01 12:25:39;;;;;;;1.02;0.80;;;;;;;;;;5049812;28;20086;-67
2022/08/01 12:28:07;;;;;;;1.52;0.88;;;;;;;;;;5051774;28;20083;-68
2022/08/01 12:30:35;;;;;;;1.20;0.80;;;;;;;;;;5041245;28;20033;-66
2022/08/01 12:33:01;;;;;;;1.13;0.98;;;;;;;;;;5047341;28;20028;-68
2022/08/01 12:35:28;;;;;;;1.38;1.00;;;;;;;;;;5034173;28;20037;-67
2022/08/01 12:38:14;;;;;;;1.00;0.90;;;;;;;;;;5039398;28;20065;-67
2022/08/01 12:40:42;;;;;;;1.20;1.00;;;;;;;;;;5032680;28;20108;-64
2022/08/01 12:43:09;;;;;;;2.35;1.20;;;;;;;;;;5020734;28;20042;-64
2022/08/01 12:45:43;;;;;;;2.42;1.23;;;;;;;;;;5033014;28;20091;-65
2022/08/01 12:48:13;;;;;;;1.65;1.20;;;;;;;;;;5037284;28;20388;-68
2022/08/01 12:50:42;;;;;;;1.25;1.15;;;;;;;;;;5035286;28;20083;-67
2022/08/01 12:53:09;;;;;;;1.73;1.15;;;;;;;;;;5047614;28;20038;-67
2022/08/01 12:55:53;;;;;;;1.30;1.10;;;;;;;;;;5035981;28;20025;-68
2022/08/01 12:58:19;;;;;;;1.77;1.23;;;;;;;;;;5021424;28;20393;-67
2022/08/01 13:00:47;;;;;;;2.40;1.00;;;;;;;;;;5042206;28;20060;-69
2022/08/01 13:03:19;;;;;;;0.70;0.70;;;;;;;;;;5051390;28;20351;-69
2022/08/01 13:05:48;;;;;;;1.17;0.75;;;;;;;;;;5041040;28;20025;-68
2022/08/01 13:08:34;;;;;;;1.05;0.90;;;;;;;;;;5050924;28;20090;-65
2022/08/01 13:11:05;;;;;;;1.17;0.70;;;;;;;;;;5042618;28;20057;-69
2022/08/01 13:13:48;;;;;;;1.60;1.00;;;;;;;;;;5037304;28;20378;-65
2022/08/01 13:16:16;;;;;;;1.63;1.02;;;;;;;;;;5052170;28;20032;-65
2022/08/01 13:19:05;;;;;;;1.27;0.90;;;;;;;;;;5046605;28;20132;-67
2022/08/01 13:21:30;;;;;;;3.03;1.10;;;;;;;;;;5025932;28;20555;-68
2022/08/01 13:24:10;;;;;;;3.28;1.30;;;;;;;;;;5044149;28;20058;-67
2022/08/01 13:26:45;;;;;;;1.30;1.20;;;;;;;;;;5044437;28;20410;-69
2022/08/01 13:29:12;;;;;;;1.10;1.10;;;;;;;;;;5030804;28;20036;-67
2022/08/01 13:31:39;;;;;;;3.00;1.15;;;;;;;;;;5033317;28;20141;-67
2022/08/01 13:34:05;;;;;;;1.13;1.00;;;;;;;;;;5043515;28;20037;-67
2022/08/01 13:36:31;;;;;;;1.20;1.10;;;;;;;;;;5050852;28;20462;-63
2022/08/01 13:41:42;;;;;;;1.65;1.25;;;;;;;;;;5037076;28;20036;-64
2022/08/01 13:44:08;;;;;;;3.35;1.20;;;;;;;;;;5051024;28;20108;-67
2022/08/01 13:46:35;;;;;;;1.20;1.10;;;;;;;;;;5047754;28;20094;-65
2022/08/01 13:49:01;;;;;;;1.63;1.20;;;;;;;;;;5041520;28;20033;-65
2022/08/01 13:51:27;;;;;;;2.17;1.13;;;;;;;;;;5040485;28;20483;-64
2022/08/01 13:53:53;;;;;;;1.35;1.20;;;;;;;;;;5030923;28;20030;-67
2022/08/01 13:56:19;;;;;;;3.03;1.30;;;;;;;;;;5033542;28;20045;-64
2022/08/01 13:58:45;;;;;;;2.00;1.20;;;;;;;;;;5041155;28;20062;-67
2022/08/01 14:01:10;;;;;;;1.80;1.23;;;;;;;;;;5050079;28;20141;-67
2022/08/01 14:03:36;;;;;;;2.53;1.50;;;;;;;;;;5050491;28;20032;-68
2022/08/01 14:06:02;;;;;;;2.15;1.30;;;;;;;;;;5049776;28;20115;-67
2022/08/01 14:08:28;;;;;;;3.17;1.50;;;;;;;;;;5046729;28;20037;-67
2022/08/01 14:10:56;;;;;;;1.80;1.40;;;;;;;;;;5043355;28;20029;-67
2022/08/01 14:13:22;;;;;;;3.22;1.40;;;;;;;;;;5033580;28;20065;-67
2022/08/01 14:15:49;;;;;;;5.18;1.48;;;;;;;;;;5029712;28;20470;-65
2022/08/01 14:18:15;;;;;;;2.35;1.48;;;;;;;;;;5046598;28;20036;-65
2022/08/01 14:20:41;;;;;;;2.80;1.80;;;;;;;;;;5048299;28;20039;-67
2022/08/01 14:23:07;;;;;;;2.50;1.70;;;;;;;;;;5029720;28;20298;-65
2022/08/01 14:25:32;;;;;;;3.35;1.50;;;;;;;;;;5034939;28;20051;-68
2022/08/01 14:27:57;;;;;;;3.95;1.80;;;;;;;;;;5034835;28;20020;-66
2022/08/01 14:30:23;;;;;;;2.60;1.60;;;;;;;;;;5045847;28;20115;-68
2022/08/01 14:32:48;;;;;;;3.35;1.90;;;;;;;;;;5029836;28;20028;-64
2022/08/01 14:35:14;;;;;;;1.80;1.70;;;;;;;;;;5046522;28;20473;-67
2022/08/01 14:37:39;;;;;;;3.50;1.70;;;;;;;;;;5044968;28;20048;-67
2022/08/01 14:40:07;;;;;;;3.85;1.80;;;;;;;;;;5048862;28;20078;-66